SCAR METAR and TAF weather

Enter ICAO airport designator
Station Type Date Time Source
SCAR METAR 2022/01/26 15:00 UTC NOAA

SCAR 261500Z AUTO 25006KT 210V270 9999 OVC037/// 23/15 Q1015


Station Type Date Time Source
SCAR Decoded METAR 2022/01/26 15:00 UTC NOAA

Arica, Chile (SCAR) 18-20S 070-20W 58M
Jan 26, 2022 - 10:00 AM EST / 2022.01.26 1500 UTC
Wind: from the WSW (250 degrees) at 7 MPH (6 KT) (direction variable):0
Visibility: greater than 7 mile(s):0
Sky conditions: overcast
Temperature: 73 F (23 C)
Dew Point: 59 F (15 C)
Relative Humidity: 60%
Pressure (altimeter): 29.97 in. Hg (1015 hPa)
ob: SCAR 261500Z AUTO 25006KT 210V270 9999 OVC037/// 23/15 Q1015
cycle: 15

Station Type Date Time Source
SCAR TAF 2022/01/26 12:03 UTC NOAA

TAF TAF SCAR 261020Z 2612/2712 31004KT 9999 OVC035 TX24/2618Z TN19/2709Z
BECMG 2614/2616 21014KT CAVOK
BECMG 2623/2701 21004KT
BECMG 2702/2704 31004KT

Example: see airport list